Time;durP1;ratioP1;P1;durP2;ratioP2;P2;SDS_P1;SDS_P2;PMS_P1;PMS_P2;Temp;Humidity;BMP_temperature;BMP_pressure;BME280_temperature;BME280_humidity;BME280_pressure;Samples;Min_cycle;Max_cycle;Signal;HPM_P1;HPM_P2
2021/09/14 00:00:44;;;;;;;122.35;9.38;;;29.10;83.20;;;;;;5043733;28;20030;-56
2021/09/14 00:03:10;;;;;;;105.63;11.15;;;29.10;83.40;;;;;;5043803;28;20053;-57
2021/09/14 00:05:37;;;;;;;82.63;8.55;;;29.00;83.50;;;;;;5042546;28;20024;-58
2021/09/14 00:08:04;;;;;;;125.65;10.88;;;29.00;83.60;;;;;;5043410;28;20386;-56
2021/09/14 00:10:30;;;;;;;110.82;10.02;;;29.00;83.50;;;;;;5043184;28;20037;-55
2021/09/14 00:12:57;;;;;;;88.13;7.85;;;29.00;83.70;;;;;;5043452;28;20025;-56
2021/09/14 00:15:24;;;;;;;85.72;9.15;;;29.00;83.90;;;;;;5043415;28;20022;-58
2021/09/14 00:17:50;;;;;;;77.90;7.18;;;29.00;84.40;;;;;;5043712;28;20253;-61
2021/09/14 00:20:17;;;;;;;53.40;5.70;;;28.90;84.90;;;;;;5043139;28;20336;-55
2021/09/14 00:22:44;;;;;;;47.70;5.03;;;29.00;84.60;;;;;;5043168;28;20037;-57
2021/09/14 00:25:11;;;;;;;91.95;9.13;;;29.00;84.40;;;;;;5043252;28;20021;-56
2021/09/14 00:27:38;;;;;;;82.53;8.10;;;28.90;84.40;;;;;;5043972;28;20048;-56
2021/09/14 00:30:05;;;;;;;31.80;3.58;;;28.90;84.40;;;;;;5043417;28;20022;-57
2021/09/14 00:32:32;;;;;;;43.15;4.60;;;28.90;84.40;;;;;;5043734;28;20258;-57
2021/09/14 00:34:58;;;;;;;19.65;2.40;;;28.90;84.50;;;;;;5043279;28;20314;-55
2021/09/14 00:37:25;;;;;;;83.90;9.43;;;28.90;84.50;;;;;;5044014;28;20025;-54
2021/09/14 00:39:52;;;;;;;155.63;12.48;;;28.90;84.60;;;;;;5043243;28;20325;-56
2021/09/14 00:42:19;;;;;;;145.20;14.80;;;28.80;84.90;;;;;;5043859;28;20029;-55
2021/09/14 00:44:46;;;;;;;131.13;14.63;;;28.80;85.50;;;;;;5043173;28;20025;-58
2021/09/14 00:47:13;;;;;;;209.93;20.27;;;28.80;85.70;;;;;;5043303;28;20034;-54
2021/09/14 00:49:39;;;;;;;131.85;14.30;;;28.80;85.90;;;;;;5043234;28;20018;-56
2021/09/14 00:52:09;;;;;;;82.70;9.07;;;28.80;86.00;;;;;;5043844;28;20097;-55
2021/09/14 00:54:38;;;;;;;42.38;4.88;;;28.80;86.20;;;;;;5041857;28;20314;-54
2021/09/14 00:57:05;;;;;;;14.63;3.25;;;28.70;86.50;;;;;;5043724;28;20036;-54
2021/09/14 00:59:32;;;;;;;7.30;2.95;;;28.70;87.20;;;;;;5043100;28;20024;-55
2021/09/14 01:01:59;;;;;;;12.52;2.85;;;28.60;86.60;;;;;;5043658;28;20306;-58
2021/09/14 01:04:26;;;;;;;11.60;2.80;;;28.70;87.00;;;;;;5043042;28;20033;-58
2021/09/14 01:06:53;;;;;;;9.75;3.55;;;28.60;86.90;;;;;;5043303;28;20345;-54
2021/09/14 01:09:21;;;;;;;8.23;3.35;;;28.60;86.70;;;;;;5031355;28;20352;-57
2021/09/14 01:11:48;;;;;;;13.52;2.65;;;28.60;86.80;;;;;;5032517;28;20071;-58
2021/09/14 01:14:15;;;;;;;6.45;3.00;;;28.60;87.00;;;;;;5031207;28;20030;-56
2021/09/14 01:16:42;;;;;;;5.18;2.67;;;28.60;87.40;;;;;;5035204;28;20060;-55
2021/09/14 01:19:10;;;;;;;9.57;3.17;;;28.60;87.30;;;;;;5034896;28;20056;-57
2021/09/14 01:21:39;;;;;;;8.30;2.92;;;28.50;87.80;;;;;;5037355;28;20017;-58
2021/09/14 01:24:07;;;;;;;9.25;2.88;;;28.50;87.90;;;;;;5035467;28;20376;-56
2021/09/14 01:26:34;;;;;;;4.70;2.40;;;28.50;88.20;;;;;;5035291;28;20027;-57
2021/09/14 01:29:09;;;;;;;6.18;2.40;;;28.40;88.40;;;;;;5032648;28;20018;-56
2021/09/14 01:31:36;;;;;;;9.20;2.95;;;28.50;88.40;;;;;;5035005;28;20038;-56
2021/09/14 01:34:04;;;;;;;6.57;2.75;;;28.40;88.20;;;;;;5036461;28;20269;-57
2021/09/14 01:36:32;;;;;;;7.20;2.15;;;28.50;88.50;;;;;;5036461;28;20314;-58
2021/09/14 01:38:59;;;;;;;7.35;2.28;;;28.40;88.70;;;;;;5034223;28;20218;-56
2021/09/14 01:41:26;;;;;;;8.27;2.50;;;28.40;89.30;;;;;;5034484;28;20088;-58
2021/09/14 01:43:53;;;;;;;8.63;2.50;;;28.40;88.90;;;;;;5034835;28;20060;-57
2021/09/14 01:46:19;;;;;;;6.25;2.30;;;28.40;89.30;;;;;;5036045;28;20028;-54
2021/09/14 01:48:46;;;;;;;13.13;2.28;;;28.40;89.60;;;;;;5035232;28;20018;-56
2021/09/14 01:51:14;;;;;;;14.85;2.28;;;28.40;89.90;;;;;;5034893;28;20039;-55
2021/09/14 01:53:41;;;;;;;13.82;2.35;;;28.40;89.90;;;;;;5031876;28;20233;-58
2021/09/14 01:56:08;;;;;;;8.25;2.38;;;28.40;89.70;;;;;;5035511;28;20275;-58
2021/09/14 01:58:35;;;;;;;11.32;2.30;;;28.50;89.70;;;;;;5036328;28;20020;-60
2021/09/14 02:01:11;;;;;;;9.52;2.53;;;28.50;89.20;;;;;;5032188;28;20018;-58
2021/09/14 02:03:46;;;;;;;10.82;1.70;;;28.50;89.60;;;;;;5036587;28;20017;-54
2021/09/14 02:30:14;;;;;;;7.10;1.90;;;28.30;90.10;;;;;;5044434;28;20029;-54
2021/09/14 03:00:02;;;;;;;8.48;2.95;;;28.20;90.50;;;;;;5044735;28;20024;-61
2021/09/14 03:02:29;;;;;;;7.47;2.90;;;28.20;90.40;;;;;;5045368;28;20017;-62
2021/09/14 03:04:56;;;;;;;6.07;2.47;;;28.20;90.70;;;;;;5044594;28;20124;-61
2021/09/14 03:07:22;;;;;;;8.13;2.83;;;28.10;90.70;;;;;;5045085;28;20037;-62
2021/09/14 03:09:49;;;;;;;7.55;2.92;;;28.10;90.60;;;;;;5044417;28;20026;-61
2021/09/14 03:12:15;;;;;;;6.72;2.92;;;28.10;90.60;;;;;;5045172;28;20033;-61
2021/09/14 03:14:44;;;;;;;8.77;2.85;;;28.10;90.80;;;;;;5044395;28;20025;-61
2021/09/14 03:17:10;;;;;;;6.85;3.03;;;28.10;90.80;;;;;;5045051;28;20091;-60
2021/09/14 03:19:37;;;;;;;8.80;3.45;;;28.10;90.80;;;;;;5044416;28;20020;-61
2021/09/14 03:22:04;;;;;;;26.52;10.43;;;28.00;91.00;;;;;;5044801;28;20092;-61
2021/09/14 03:24:30;;;;;;;14.00;6.45;;;28.10;91.00;;;;;;5043297;28;20025;-59
2021/09/14 03:26:58;;;;;;;6.70;4.20;;;28.10;90.80;;;;;;5044762;28;20025;-60
2021/09/14 03:29:25;;;;;;;9.82;2.90;;;28.10;90.50;;;;;;5044142;28;20097;-62
2021/09/14 03:31:52;;;;;;;6.03;2.80;;;28.10;90.40;;;;;;5044812;28;20270;-62
2021/09/14 03:34:18;;;;;;;7.28;2.95;;;28.10;90.40;;;;;;5044066;28;20017;-51
2021/09/14 03:36:45;;;;;;;6.28;2.55;;;28.10;90.60;;;;;;5044395;28;20029;-52
2021/09/14 03:39:11;;;;;;;8.35;2.58;;;28.10;90.40;;;;;;5043873;28;20022;-52
2021/09/14 03:41:38;;;;;;;4.70;2.60;;;28.10;90.30;;;;;;5044610;28;20128;-55
2021/09/14 03:44:04;;;;;;;5.18;2.33;;;28.10;90.20;;;;;;5043823;28;20018;-47
2021/09/14 03:46:31;;;;;;;9.25;2.40;;;28.10;90.30;;;;;;5044393;28;20036;-50
2021/09/14 03:48:57;;;;;;;7.50;2.35;;;28.10;90.30;;;;;;5043935;28;20021;-51
2021/09/14 03:51:24;;;;;;;6.97;2.15;;;28.20;90.20;;;;;;5044182;28;20025;-49
2021/09/14 03:53:51;;;;;;;7.25;2.35;;;28.20;90.20;;;;;;5044002;28;20071;-54
2021/09/14 03:56:17;;;;;;;4.68;1.88;;;28.20;90.10;;;;;;5043898;28;20093;-49
2021/09/14 03:58:44;;;;;;;4.05;2.20;;;28.20;90.10;;;;;;5043943;28;20021;-49
2021/09/14 04:01:10;;;;;;;3.53;1.75;;;28.20;90.10;;;;;;5044139;28;20140;-52
2021/09/14 04:11:16;;;;;;;7.40;1.92;;;28.20;89.80;;;;;;5043218;28;20032;-49
2021/09/14 04:13:42;;;;;;;5.57;2.00;;;28.20;89.60;;;;;;5043895;28;20021;-51
2021/09/14 04:16:09;;;;;;;6.55;2.15;;;28.20;89.90;;;;;;5043776;28;20074;-53
2021/09/14 04:18:35;;;;;;;4.15;1.95;;;28.20;90.00;;;;;;5040287;28;20209;-48
2021/09/14 04:21:02;;;;;;;7.80;1.95;;;28.20;89.80;;;;;;5023759;28;20057;-51
2021/09/14 04:23:29;;;;;;;5.60;2.38;;;28.20;89.60;;;;;;5023303;28;20412;-47
2021/09/14 04:25:55;;;;;;;7.45;2.17;;;28.20;89.50;;;;;;5040097;28;20041;-53
2021/09/14 04:28:22;;;;;;;7.32;2.30;;;28.20;89.30;;;;;;5043518;28;20020;-54
2021/09/14 04:30:48;;;;;;;6.07;2.40;;;28.20;89.30;;;;;;5043727;28;20037;-53
2021/09/14 04:33:15;;;;;;;7.18;2.25;;;28.20;89.20;;;;;;5043820;28;20027;-53
2021/09/14 04:35:42;;;;;;;5.30;2.63;;;28.20;89.50;;;;;;5043347;28;20383;-48
2021/09/14 04:38:09;;;;;;;5.13;2.10;;;28.20;89.40;;;;;;5043772;28;20021;-54
2021/09/14 04:40:36;;;;;;;5.35;2.00;;;28.20;89.70;;;;;;5043387;28;20018;-51
2021/09/14 04:43:02;;;;;;;6.72;2.13;;;28.20;89.70;;;;;;5043686;28;20064;-50
2021/09/14 04:45:29;;;;;;;8.73;2.65;;;28.20;89.60;;;;;;5043326;28;20316;-53
2021/09/14 04:47:55;;;;;;;7.18;2.50;;;28.20;89.30;;;;;;5043728;28;20022;-52
2021/09/14 04:50:22;;;;;;;5.60;2.40;;;28.20;89.10;;;;;;5043685;28;20302;-53
2021/09/14 04:52:49;;;;;;;5.22;2.20;;;28.20;89.20;;;;;;5047353;28;20040;-49
2021/09/14 04:55:15;;;;;;;6.68;2.53;;;28.20;89.30;;;;;;5047329;28;20068;-52
2021/09/14 04:57:42;;;;;;;6.70;2.25;;;28.20;89.40;;;;;;5047740;28;20036;-53
2021/09/14 05:00:11;;;;;;;5.90;2.70;;;28.20;89.50;;;;;;5047128;28;20024;-46
2021/09/14 05:02:38;;;;;;;8.63;2.40;;;28.10;89.70;;;;;;5047491;28;20064;-48
2021/09/14 05:05:05;;;;;;;6.47;2.25;;;28.10;89.80;;;;;;5046743;28;20209;-52
2021/09/14 05:07:32;;;;;;;7.13;2.20;;;28.10;89.80;;;;;;5047196;28;20045;-51
2021/09/14 05:09:58;;;;;;;5.13;2.10;;;28.10;89.70;;;;;;5046880;28;20048;-51
2021/09/14 05:12:25;;;;;;;5.78;2.03;;;28.10;89.70;;;;;;5047451;28;20041;-54
2021/09/14 05:14:52;;;;;;;4.20;2.00;;;28.10;89.80;;;;;;5046731;28;20042;-48
2021/09/14 05:17:18;;;;;;;6.45;2.28;;;28.10;89.80;;;;;;5047498;28;20088;-49
2021/09/14 05:19:46;;;;;;;4.32;1.98;;;28.10;89.90;;;;;;5046892;28;20025;-53
2021/09/14 05:22:15;;;;;;;11.55;2.63;;;28.10;89.80;;;;;;5046747;28;20025;-48
2021/09/14 05:24:41;;;;;;;6.97;2.20;;;28.10;89.80;;;;;;5046841;28;20273;-46
2021/09/14 05:27:08;;;;;;;7.78;2.80;;;28.10;89.70;;;;;;5046893;28;20032;-49
2021/09/14 05:29:34;;;;;;;5.53;2.33;;;28.00;90.10;;;;;;5046738;28;20029;-53
2021/09/14 05:32:02;;;;;;;6.32;2.08;;;28.00;90.00;;;;;;5046998;28;20022;-48
2021/09/14 05:34:28;;;;;;;6.53;2.30;;;28.00;90.10;;;;;;5046459;28;20037;-50
2021/09/14 05:36:56;;;;;;;6.57;2.20;;;28.00;90.10;;;;;;5046985;28;20063;-50
2021/09/14 05:39:23;;;;;;;7.22;2.67;;;28.00;90.20;;;;;;5046631;28;20335;-50
2021/09/14 05:41:50;;;;;;;4.72;1.80;;;28.00;90.20;;;;;;5046574;28;20293;-48
2021/09/14 05:44:16;;;;;;;7.82;2.22;;;28.00;90.20;;;;;;5045984;28;20092;-47
2021/09/14 05:46:43;;;;;;;6.53;2.20;;;28.00;90.40;;;;;;5046749;28;20098;-49
2021/09/14 05:49:09;;;;;;;9.68;2.38;;;27.90;90.40;;;;;;5046229;28;20029;-52
2021/09/14 05:51:36;;;;;;;7.72;2.08;;;27.90;90.50;;;;;;5046567;28;20021;-50
2021/09/14 05:54:03;;;;;;;7.45;2.38;;;27.90;90.50;;;;;;5046232;28;20033;-55
2021/09/14 05:56:32;;;;;;;5.40;2.15;;;27.90;90.50;;;;;;5046412;28;20018;-47
2021/09/14 05:59:00;;;;;;;10.73;2.05;;;27.90;90.60;;;;;;5046391;28;20333;-51
2021/09/14 06:01:28;;;;;;;5.20;1.98;;;27.90;90.80;;;;;;5046230;28;20025;-54
2021/09/14 06:03:55;;;;;;;7.43;1.88;;;27.80;91.00;;;;;;5045971;28;20257;-47
2021/09/14 06:06:22;;;;;;;9.70;1.85;;;27.80;91.00;;;;;;5046131;28;20213;-52
2021/09/14 06:08:48;;;;;;;16.35;2.80;;;27.70;90.90;;;;;;5045966;28;20056;-50
2021/09/14 06:11:15;;;;;;;22.63;3.00;;;27.70;90.90;;;;;;5046083;28;20075;-49
2021/09/14 06:13:42;;;;;;;15.32;3.03;;;27.70;91.10;;;;;;5045932;28;20099;-48
2021/09/14 06:16:09;;;;;;;10.55;2.55;;;27.70;91.00;;;;;;5046066;28;20036;-51
2021/09/14 06:18:36;;;;;;;8.82;2.88;;;27.70;91.00;;;;;;5045840;28;20064;-47
2021/09/14 06:21:03;;;;;;;7.82;2.60;;;27.70;91.20;;;;;;5045873;28;20253;-50
2021/09/14 06:23:29;;;;;;;8.90;2.70;;;27.70;91.10;;;;;;5045767;28;20341;-46
2021/09/14 06:25:56;;;;;;;6.82;2.55;;;27.70;91.10;;;;;;5045821;28;20033;-49
2021/09/14 06:28:22;;;;;;;7.32;2.50;;;27.70;91.30;;;;;;5045644;28;20022;-48
2021/09/14 06:30:49;;;;;;;8.10;3.10;;;27.70;91.30;;;;;;5045704;28;20294;-54
2021/09/14 06:33:16;;;;;;;14.80;3.55;;;27.70;91.30;;;;;;5045580;28;20025;-46
2021/09/14 06:35:42;;;;;;;28.80;3.92;;;27.70;91.40;;;;;;5045361;28;20064;-58
2021/09/14 06:38:09;;;;;;;41.95;4.22;;;27.60;91.40;;;;;;5045437;28;20028;-56
2021/09/14 06:40:35;;;;;;;28.50;3.47;;;27.70;91.50;;;;;;5045485;28;20092;-61
2021/09/14 06:43:02;;;;;;;26.20;3.60;;;27.60;91.50;;;;;;5045318;28;20302;-51
2021/09/14 06:45:28;;;;;;;39.97;4.00;;;27.60;91.80;;;;;;5045280;28;20025;-50
2021/09/14 06:47:55;;;;;;;32.05;3.95;;;27.60;91.80;;;;;;5045464;28;20025;-46
2021/09/14 06:50:22;;;;;;;13.25;2.63;;;27.60;91.70;;;;;;5045219;28;20020;-53
2021/09/14 06:52:50;;;;;;;30.95;4.32;;;27.70;91.80;;;;;;5045651;28;20213;-46
2021/09/14 06:55:17;;;;;;;18.45;3.30;;;27.60;91.60;;;;;;5045206;28;20036;-52
2021/09/14 06:57:44;;;;;;;26.05;3.63;;;27.60;91.80;;;;;;5045723;28;20036;-46
2021/09/14 07:00:11;;;;;;;21.70;3.60;;;27.60;91.70;;;;;;5045378;28;20266;-47
2021/09/14 07:02:40;;;;;;;17.75;3.55;;;27.60;91.70;;;;;;5045504;28;20060;-55
2021/09/14 07:05:07;;;;;;;8.65;2.90;;;27.60;91.70;;;;;;5044928;28;20025;-49
2021/09/14 07:07:34;;;;;;;15.77;2.90;;;27.60;91.60;;;;;;5045127;28;20041;-48
2021/09/14 07:10:03;;;;;;;13.82;2.65;;;27.60;91.50;;;;;;5044979;28;20018;-49
2021/09/14 07:12:30;;;;;;;11.07;3.00;;;27.60;91.60;;;;;;5045219;28;20213;-51
2021/09/14 07:14:57;;;;;;;9.13;2.55;;;27.60;91.70;;;;;;5044275;28;20032;-51
2021/09/14 07:17:23;;;;;;;11.98;2.70;;;27.60;91.80;;;;;;5045171;28;20033;-45
2021/09/14 07:19:51;;;;;;;11.15;2.17;;;27.60;91.70;;;;;;5044895;28;20018;-49
2021/09/14 07:22:17;;;;;;;9.98;2.22;;;27.60;91.60;;;;;;5045038;28;20029;-46
2021/09/14 07:24:44;;;;;;;9.63;2.63;;;27.60;91.60;;;;;;5044835;28;20028;-51
2021/09/14 07:27:10;;;;;;;11.27;2.47;;;27.50;91.70;;;;;;5044900;28;20036;-45
2021/09/14 07:29:37;;;;;;;9.57;2.28;;;27.50;91.90;;;;;;5044762;28;20044;-51
2021/09/14 07:32:05;;;;;;;10.02;2.25;;;27.50;91.90;;;;;;5044950;28;20373;-45
2021/09/14 07:34:32;;;;;;;8.18;2.55;;;27.40;91.80;;;;;;5044361;28;20026;-51
2021/09/14 07:36:59;;;;;;;10.75;2.10;;;27.40;91.80;;;;;;5044696;28;20034;-53
2021/09/14 07:39:26;;;;;;;5.70;1.98;;;27.40;91.70;;;;;;5044422;28;20048;-48
2021/09/14 07:41:52;;;;;;;7.97;2.40;;;27.40;91.80;;;;;;5044467;28;20102;-44
2021/09/14 07:44:19;;;;;;;8.63;2.25;;;27.40;91.50;;;;;;5044520;28;20025;-50
2021/09/14 07:46:45;;;;;;;5.18;2.38;;;27.50;91.30;;;;;;5044620;28;20033;-45
2021/09/14 07:49:12;;;;;;;5.93;2.17;;;27.50;91.20;;;;;;5044183;28;20028;-50
2021/09/14 07:51:38;;;;;;;5.18;2.38;;;27.40;91.40;;;;;;5044057;28;20025;-52
2021/09/14 07:54:05;;;;;;;10.45;2.50;;;27.40;91.40;;;;;;5044189;28;20029;-58
2021/09/14 07:56:32;;;;;;;10.57;2.83;;;27.40;91.30;;;;;;5044191;28;20059;-46
2021/09/14 07:58:58;;;;;;;10.52;2.38;;;27.40;91.40;;;;;;5044262;28;20013;-52
2021/09/14 08:01:25;;;;;;;26.50;4.50;;;27.30;91.30;;;;;;5044332;28;20187;-48
2021/09/14 08:03:52;;;;;;;36.70;4.28;;;27.30;91.20;;;;;;5043931;28;20029;-46
2021/09/14 08:06:18;;;;;;;48.45;5.18;;;27.30;91.30;;;;;;5044368;28;20025;-51
2021/09/14 08:08:45;;;;;;;35.97;4.55;;;27.30;91.20;;;;;;5044059;28;20049;-47
2021/09/14 08:11:12;;;;;;;23.83;3.72;;;27.40;91.20;;;;;;5044067;28;20029;-55
2021/09/14 08:13:38;;;;;;;24.30;3.40;;;27.30;91.20;;;;;;5043760;28;20041;-53
2021/09/14 08:16:05;;;;;;;16.80;3.33;;;27.30;91.20;;;;;;5043958;28;20032;-47
2021/09/14 08:18:32;;;;;;;21.08;3.72;;;27.30;91.20;;;;;;5043971;28;20013;-47
2021/09/14 08:20:59;;;;;;;11.55;3.10;;;27.40;91.20;;;;;;5043922;28;20030;-45
2021/09/14 08:23:25;;;;;;;9.13;2.55;;;27.30;91.30;;;;;;5043968;28;20025;-48
2021/09/14 08:25:52;;;;;;;13.70;2.88;;;27.30;91.30;;;;;;5044726;28;20306;-45
2021/09/14 08:28:18;;;;;;;10.65;2.72;;;27.30;91.30;;;;;;5048023;28;20071;-50
2021/09/14 08:30:45;;;;;;;7.72;2.30;;;27.30;91.30;;;;;;5048180;28;20187;-49
2021/09/14 08:33:12;;;;;;;13.27;2.65;;;27.30;91.20;;;;;;5047858;28;20245;-48
2021/09/14 08:35:38;;;;;;;8.40;2.55;;;27.30;91.30;;;;;;5047709;28;20024;-47
2021/09/14 08:38:05;;;;;;;9.27;2.70;;;27.30;91.30;;;;;;5047732;28;20310;-55
2021/09/14 08:40:31;;;;;;;6.30;2.00;;;27.30;91.30;;;;;;5047618;28;20083;-47
2021/09/14 08:42:58;;;;;;;9.15;2.00;;;27.30;91.30;;;;;;5047621;28;20013;-48
2021/09/14 08:45:25;;;;;;;8.13;2.10;;;27.30;91.20;;;;;;5047749;28;20093;-49
2021/09/14 08:47:52;;;;;;;8.20;2.22;;;27.30;91.20;;;;;;5047649;28;20021;-46
2021/09/14 08:50:22;;;;;;;5.20;1.90;;;27.20;91.30;;;;;;5047820;28;20033;-51
2021/09/14 08:52:50;;;;;;;8.25;2.38;;;27.20;91.30;;;;;;5047475;28;20029;-47
2021/09/14 08:55:17;;;;;;;7.22;2.28;;;27.20;91.30;;;;;;5047374;28;20067;-46
2021/09/14 08:57:51;;;;;;;7.55;1.92;;;27.20;91.50;;;;;;5047826;28;20025;-50
2021/09/14 09:00:33;;;;;;;7.07;2.10;;;27.20;91.50;;;;;;5047336;28;20080;-48
2021/09/14 09:03:00;;;;;;;6.47;2.33;;;27.20;91.50;;;;;;5047305;28;20072;-46
2021/09/14 09:05:35;;;;;;;8.30;2.10;;;27.20;91.60;;;;;;5047149;28;20152;-50
2021/09/14 09:08:02;;;;;;;8.45;2.47;;;27.20;91.70;;;;;;5047189;28;20041;-48
2021/09/14 09:10:31;;;;;;;7.15;2.10;;;27.10;91.70;;;;;;5047192;28;20021;-51
2021/09/14 09:13:00;;;;;;;7.03;2.35;;;27.10;91.70;;;;;;5047040;28;20317;-47
2021/09/14 09:15:33;;;;;;;9.07;2.33;;;27.10;91.80;;;;;;5046912;28;20025;-48
2021/09/14 09:18:15;;;;;;;9.38;2.35;;;27.10;91.80;;;;;;5047095;28;20044;-50
2021/09/14 09:20:44;;;;;;;8.10;2.60;;;27.10;91.70;;;;;;5047105;28;20084;-47
2021/09/14 09:23:13;;;;;;;8.07;2.20;;;27.10;91.60;;;;;;5047135;28;20244;-50
2021/09/14 09:25:40;;;;;;;10.05;2.40;;;27.10;91.60;;;;;;5047082;28;20363;-48
2021/09/14 09:28:12;;;;;;;3.88;2.53;;;27.10;91.60;;;;;;5046845;28;20128;-47
2021/09/14 09:30:41;;;;;;;7.30;2.70;;;27.10;91.70;;;;;;5046775;28;20021;-47
2021/09/14 09:33:10;;;;;;;8.70;2.28;;;27.00;91.70;;;;;;5046731;28;20206;-46
2021/09/14 09:35:39;;;;;;;8.70;2.30;;;27.10;91.70;;;;;;5046522;28;20021;-48
2021/09/14 09:38:08;;;;;;;6.68;2.17;;;27.00;91.80;;;;;;5046229;28;20018;-48
2021/09/14 09:40:37;;;;;;;5.65;2.20;;;27.00;91.90;;;;;;5046721;28;20021;-49
2021/09/14 09:43:09;;;;;;;11.75;2.42;;;27.00;92.00;;;;;;5046459;28;20088;-51
2021/09/14 09:45:43;;;;;;;5.93;2.30;;;26.90;91.90;;;;;;5046453;28;20017;-53
2021/09/14 09:48:11;;;;;;;8.70;2.78;;;26.90;91.80;;;;;;5046433;28;20076;-47
2021/09/14 09:50:39;;;;;;;9.70;3.50;;;26.90;91.90;;;;;;5046474;28;20017;-47
2021/09/14 09:53:07;;;;;;;7.18;3.40;;;26.90;91.90;;;;;;5046291;28;20026;-47
2021/09/14 09:55:35;;;;;;;9.80;4.38;;;26.90;91.80;;;;;;5046331;28;20329;-53
2021/09/14 09:58:05;;;;;;;13.93;4.18;;;26.90;91.90;;;;;;5046346;28;20069;-51
2021/09/14 10:00:39;;;;;;;8.57;4.13;;;26.90;91.90;;;;;;5046322;28;20064;-50
2021/09/14 10:03:10;;;;;;;9.50;3.30;;;26.90;91.90;;;;;;5046779;28;20022;-46
2021/09/14 10:05:39;;;;;;;10.50;2.80;;;26.90;92.00;;;;;;5046213;28;20017;-53
2021/09/14 10:08:12;;;;;;;10.02;2.70;;;26.80;92.00;;;;;;5046040;28;20271;-46
2021/09/14 10:10:40;;;;;;;9.45;2.83;;;26.80;91.90;;;;;;5045969;28;20334;-50
2021/09/14 10:13:09;;;;;;;6.20;2.65;;;26.80;91.90;;;;;;5046001;28;20028;-52
2021/09/14 10:15:40;;;;;;;5.75;2.38;;;26.80;91.90;;;;;;5045771;28;20041;-46
2021/09/14 10:18:08;;;;;;;9.57;2.97;;;26.80;91.90;;;;;;5045850;28;20018;-49
2021/09/14 10:20:43;;;;;;;7.90;2.85;;;26.80;91.90;;;;;;5045985;28;20064;-49
2021/09/14 10:23:38;;;;;;;11.18;3.17;;;26.80;92.00;;;;;;5045979;28;20013;-53
2021/09/14 10:26:13;;;;;;;7.10;3.20;;;26.80;92.00;;;;;;5044457;28;20033;-46
2021/09/14 10:28:45;;;;;;;8.32;3.20;;;26.80;92.00;;;;;;5046227;28;20075;-48
2021/09/14 10:31:26;;;;;;;9.82;3.53;;;26.80;92.00;;;;;;5045890;28;20040;-50
2021/09/14 10:34:11;;;;;;;8.27;3.10;;;26.70;92.00;;;;;;5045782;28;20028;-50
2021/09/14 10:36:41;;;;;;;7.90;2.85;;;26.70;92.10;;;;;;5045351;28;20052;-46
2021/09/14 10:39:31;;;;;;;7.22;2.63;;;26.70;92.10;;;;;;5045583;28;20028;-46
2021/09/14 10:41:58;;;;;;;8.60;2.80;;;26.70;92.10;;;;;;5045758;28;20018;-51
2021/09/14 10:44:32;;;;;;;12.65;3.47;;;26.70;92.10;;;;;;5045525;28;20031;-47
2021/09/14 10:47:19;;;;;;;7.78;3.00;;;26.70;92.10;;;;;;5045719;28;20029;-50
2021/09/14 10:49:48;;;;;;;8.90;3.30;;;26.70;92.10;;;;;;5044667;28;20021;-54
2021/09/14 10:52:17;;;;;;;12.93;3.50;;;26.70;92.10;;;;;;5045660;28;20037;-51
2021/09/14 10:54:49;;;;;;;8.68;4.47;;;26.70;92.00;;;;;;5045057;28;20025;-46
2021/09/14 10:57:16;;;;;;;12.32;4.30;;;26.70;91.90;;;;;;5045456;28;20030;-53
2021/09/14 10:59:51;;;;;;;9.45;3.97;;;26.70;91.90;;;;;;5045091;28;20027;-51
2021/09/14 11:02:23;;;;;;;11.27;4.20;;;26.70;91.60;;;;;;5045376;28;20201;-47
2021/09/14 11:04:49;;;;;;;;;;;26.70;91.60;;;;;;5045909;28;20238;-48
2021/09/14 11:07:21;;;;;;;8.25;4.25;;;26.70;91.40;;;;;;5044735;28;19909;-48
2021/09/14 11:09:58;;;;;;;9.68;3.88;;;26.70;91.30;;;;;;5045373;28;20100;-47
2021/09/14 11:12:30;;;;;;;8.82;3.45;;;26.60;91.20;;;;;;5045294;28;20037;-44
2021/09/14 11:14:58;;;;;;;11.80;4.53;;;26.70;91.10;;;;;;5044968;28;20177;-56
2021/09/14 11:17:30;;;;;;;9.02;4.57;;;26.70;91.10;;;;;;5045227;28;20029;-50
2021/09/14 11:20:19;;;;;;;;;;;26.70;91.40;;;;;;5045332;28;20330;-55
2021/09/14 11:22:48;;;;;;;11.68;4.50;;;26.70;91.10;;;;;;5045096;28;19950;-56
2021/09/14 11:25:20;;;;;;;11.40;4.65;;;26.70;91.00;;;;;;5044758;28;20045;-48
2021/09/14 11:27:59;;;;;;;9.57;5.88;;;26.70;91.00;;;;;;5045427;28;20254;-50
2021/09/14 11:30:26;;;;;;;11.88;5.60;;;26.80;91.10;;;;;;5044546;28;20025;-49
2021/09/14 11:32:55;;;;;;;9.43;4.68;;;26.80;91.00;;;;;;5044484;28;20052;-49
2021/09/14 11:35:23;;;;;;;12.23;4.20;;;26.80;91.00;;;;;;5044301;28;20282;-46
2021/09/14 11:38:06;;;;;;;10.88;3.80;;;26.80;90.90;;;;;;5044362;28;20029;-47
2021/09/14 11:40:43;;;;;;;11.82;3.95;;;26.90;90.90;;;;;;5044511;28;20063;-52
2021/09/14 11:43:10;;;;;;;10.48;3.67;;;26.90;90.90;;;;;;5044592;28;20021;-53
2021/09/14 11:45:37;;;;;;;12.15;3.58;;;26.90;90.90;;;;;;5044176;28;20023;-48
2021/09/14 11:48:19;;;;;;;16.48;3.13;;;26.90;90.90;;;;;;5043917;28;20071;-51
2021/09/14 11:50:46;;;;;;;10.73;3.07;;;26.90;90.90;;;;;;5043884;28;20025;-46
2021/09/14 11:53:16;;;;;;;8.88;3.22;;;27.00;90.90;;;;;;5044026;28;20248;-50
2021/09/14 11:55:47;;;;;;;11.02;2.90;;;27.00;90.70;;;;;;5043977;28;20210;-52
2021/09/14 11:58:32;;;;;;;6.97;2.92;;;27.10;90.50;;;;;;5043938;28;20045;-47
2021/09/14 12:01:07;;;;;;;9.23;2.60;;;27.20;90.60;;;;;;5044008;28;20025;-52
2021/09/14 12:03:38;;;;;;;12.60;3.10;;;27.20;90.40;;;;;;5043999;28;20108;-48
2021/09/14 12:06:08;;;;;;;9.25;2.83;;;27.30;90.20;;;;;;5043951;28;20026;-51
2021/09/14 12:08:42;;;;;;;11.40;2.97;;;27.40;90.20;;;;;;5043813;28;20072;-48
2021/09/14 12:11:10;;;;;;;20.30;4.20;;;27.40;90.00;;;;;;5044037;28;20210;-52
2021/09/14 12:13:39;;;;;;;23.77;4.45;;;27.50;90.00;;;;;;5033908;28;20113;-51
2021/09/14 12:16:10;;;;;;;16.08;4.13;;;27.50;89.00;;;;;;5024221;28;20287;-53
2021/09/14 12:18:38;;;;;;;12.18;3.80;;;27.60;88.60;;;;;;5032008;28;20022;-52
2021/09/14 12:21:05;;;;;;;11.00;3.90;;;27.60;88.60;;;;;;5043861;28;20025;-55
2021/09/14 12:23:31;;;;;;;9.75;3.50;;;27.60;88.20;;;;;;5043557;28;20025;-52
2021/09/14 12:25:58;;;;;;;6.63;2.90;;;27.70;87.90;;;;;;5043782;28;20021;-53
2021/09/14 12:28:25;;;;;;;12.95;3.05;;;27.80;88.00;;;;;;5043872;28;20055;-47
2021/09/14 12:30:53;;;;;;;10.07;2.80;;;27.80;88.20;;;;;;5043283;28;20038;-48
2021/09/14 12:33:21;;;;;;;12.65;2.80;;;27.80;87.40;;;;;;5038835;28;20340;-46
2021/09/14 12:35:48;;;;;;;12.20;3.15;;;27.90;87.30;;;;;;5043795;28;20033;-56
2021/09/14 12:38:15;;;;;;;8.88;2.85;;;27.90;87.20;;;;;;5043495;28;20333;-47
2021/09/14 12:40:41;;;;;;;9.20;2.78;;;28.00;87.40;;;;;;5043079;28;20052;-48
2021/09/14 12:43:08;;;;;;;8.48;2.22;;;28.00;86.70;;;;;;5040438;28;20085;-47
2021/09/14 12:45:35;;;;;;;10.55;2.50;;;28.00;86.40;;;;;;5023928;28;20206;-48
2021/09/14 12:48:01;;;;;;;6.70;2.40;;;28.00;85.90;;;;;;5024182;28;20022;-52
2021/09/14 12:50:28;;;;;;;9.05;2.15;;;28.10;85.90;;;;;;5023389;28;20088;-52
2021/09/14 12:52:54;;;;;;;5.43;2.40;;;28.00;85.70;;;;;;5024168;28;20076;-47
2021/09/14 12:55:21;;;;;;;9.73;2.70;;;28.10;85.70;;;;;;5023728;28;20340;-47
2021/09/14 12:57:48;;;;;;;10.20;2.67;;;28.10;85.60;;;;;;5023860;28;20022;-48
2021/09/14 13:00:15;;;;;;;9.50;2.50;;;28.10;85.80;;;;;;5023808;28;20250;-51
2021/09/14 13:02:41;;;;;;;10.85;2.55;;;28.10;85.00;;;;;;5024520;28;20045;-49
2021/09/14 13:05:08;;;;;;;8.93;2.67;;;28.20;85.40;;;;;;5023826;28;20045;-52
2021/09/14 13:07:35;;;;;;;8.32;2.53;;;28.20;84.90;;;;;;5023899;28;20053;-53
2021/09/14 13:10:01;;;;;;;6.38;2.03;;;28.20;84.20;;;;;;5024025;28;20090;-54
2021/09/14 13:12:32;;;;;;;7.05;2.47;;;28.20;84.70;;;;;;5025454;28;20025;-49
2021/09/14 13:17:44;;;;;;;7.93;2.42;;;28.30;84.00;;;;;;5027767;28;20052;-51
2021/09/14 13:20:11;;;;;;;4.75;2.50;;;28.30;84.50;;;;;;5027801;28;20104;-53
2021/09/14 13:22:38;;;;;;;10.15;2.15;;;28.30;84.70;;;;;;5028128;28;20084;-47
2021/09/14 13:25:05;;;;;;;8.38;2.28;;;28.30;84.80;;;;;;5027406;28;20259;-51
2021/09/14 13:27:32;;;;;;;6.47;2.40;;;28.30;84.60;;;;;;5027825;28;20040;-50
2021/09/14 13:29:59;;;;;;;8.73;2.53;;;28.30;84.30;;;;;;5027420;28;20026;-52
2021/09/14 13:32:26;;;;;;;10.38;2.15;;;28.30;84.40;;;;;;5027669;28;20026;-51
2021/09/14 13:34:52;;;;;;;6.88;2.00;;;28.30;84.50;;;;;;5027068;28;20320;-46
2021/09/14 13:37:19;;;;;;;8.48;2.50;;;28.40;84.70;;;;;;5026859;28;20037;-49
2021/09/14 13:39:46;;;;;;;7.72;2.10;;;28.40;84.80;;;;;;5027207;28;20085;-54
2021/09/14 13:42:17;;;;;;;9.10;2.17;;;28.40;84.20;;;;;;5027207;28;20034;-56
2021/09/14 13:47:21;;;;;;;4.38;2.13;;;28.40;84.80;;;;;;5027235;28;20064;-51
2021/09/14 13:49:48;;;;;;;8.70;2.42;;;28.40;85.00;;;;;;5027463;28;20318;-52
2021/09/14 13:52:15;;;;;;;5.85;2.47;;;28.40;84.80;;;;;;5027320;28;20038;-47